Time;durP1;ratioP1;P1;durP2;ratioP2;P2;SDS_P1;SDS_P2;PMS_P1;PMS_P2;Temp;Humidity;BMP_temperature;BMP_pressure;BME280_temperature;BME280_humidity;BME280_pressure;Samples;Min_cycle;Max_cycle;Signal;HPM_P1;HPM_P2
2022/01/26 00:06:05;;;;;;;16.48;7.55;;;;;;;-17.31;57.05;94139.88;5093241;28;20129;-37
2022/01/26 00:08:31;;;;;;;29.35;8.57;;;;;;;-17.57;56.54;94139.91;5092918;28;20028;-38
2022/01/26 00:10:56;;;;;;;15.75;7.68;;;;;;;-17.43;56.90;94117.09;5092758;28;20123;-38
2022/01/26 00:13:22;;;;;;;20.13;10.98;;;;;;;-17.28;56.71;94139.91;5092700;28;20401;-38
2022/01/26 00:15:47;;;;;;;31.90;15.85;;;;;;;-17.37;57.71;94133.38;5092877;28;20052;-37
2022/01/26 00:18:14;;;;;;;27.88;13.70;;;;;;;-17.13;57.58;94128.41;5090904;28;20514;-38
2022/01/26 00:20:55;;;;;;;21.30;10.57;;;;;;;-17.13;56.04;94128.41;5072459;28;20048;-38
2022/01/26 00:23:34;;;;;;;18.52;7.18;;;;;;;-16.99;55.73;94114.63;5072394;28;20024;-38
2022/01/26 00:38:52;;;;;;;10.68;7.18;;;;;;;-17.11;56.72;94116.75;5092604;28;20081;-38
2022/01/26 00:41:32;;;;;;;30.60;9.32;;;;;;;-17.21;56.60;94116.25;5092204;28;20074;-39
2022/01/26 00:43:58;;;;;;;11.35;5.28;;;;;;;-17.29;56.42;94109.38;5092049;28;20111;-37
2022/01/26 00:46:24;;;;;;;20.10;9.50;;;;;;;-17.04;55.69;94112.31;5092033;28;20058;-37
2022/01/26 00:48:50;;;;;;;33.08;13.50;;;;;;;-17.33;56.63;94127.03;5091977;28;20024;-37
2022/01/26 00:51:19;;;;;;;23.83;10.65;;;;;;;-17.37;57.00;94094.56;5092240;28;20052;-37
2022/01/26 00:53:50;;;;;;;23.73;12.32;;;;;;;-17.36;57.77;94108.50;5091986;28;20501;-38
2022/01/26 00:56:16;;;;;;;15.82;9.10;;;;;;;-17.22;59.25;94114.75;5074249;28;20032;-38
2022/01/26 00:58:42;;;;;;;8.23;6.40;;;;;;;-17.09;58.24;94110.00;5085516;28;20111;-37
2022/01/26 01:01:07;;;;;;;12.82;6.05;;;;;;;-17.09;58.10;94099.44;5071585;28;20025;-37
2022/01/26 01:03:36;;;;;;;14.35;6.65;;;;;;;-16.95;58.23;94101.50;5053719;28;20028;-38
2022/01/26 01:06:09;;;;;;;26.38;12.45;;;;;;;-16.94;56.96;94095.84;5071700;28;20024;-38
2022/01/26 01:08:35;;;;;;;7.15;6.55;;;;;;;-17.01;57.26;94079.16;5071408;28;20028;-38
2022/01/26 01:11:01;;;;;;;11.05;4.93;;;;;;;-16.81;56.05;94091.06;5071441;28;20051;-38
2022/01/26 01:13:35;;;;;;;18.35;8.95;;;;;;;-16.90;57.21;94090.59;5071057;28;20025;-38
2022/01/26 01:16:03;;;;;;;10.85;5.68;;;;;;;-16.92;57.13;94090.19;5085075;28;20077;-39
2022/01/26 01:32:15;;;;;;;24.48;9.02;;;;;;;-17.15;57.06;94100.88;5070991;28;20025;-38
2022/01/26 01:34:37;;;;;;;21.55;11.18;;;;;;;-17.06;57.96;94101.34;5067765;28;20406;-39
2022/01/26 01:37:06;;;;;;;23.88;10.50;;;;;;;-17.11;59.17;94093.00;5070780;28;20020;-38
2022/01/26 01:39:33;;;;;;;18.67;11.40;;;;;;;-16.93;58.53;94096.63;5070817;28;20386;-38
2022/01/26 01:42:00;;;;;;;32.75;14.18;;;;;;;-16.90;58.08;94090.59;5071040;28;20034;-38
2022/01/26 01:44:26;;;;;;;24.45;12.05;;;;;;;-16.98;59.65;94091.63;5071013;28;20024;-37
2022/01/26 01:46:53;;;;;;;27.60;12.57;;;;;;;-16.79;59.97;94091.47;5070734;28;20519;-39
2022/01/26 01:49:18;;;;;;;13.48;11.20;;;;;;;-16.53;60.36;94075.53;5070887;28;20456;-39
2022/01/26 01:51:55;;;;;;;17.33;11.20;;;;;;;-16.61;60.35;94077.31;5070621;28;20023;-39
2022/01/26 01:54:21;;;;;;;25.98;11.88;;;;;;;-16.30;60.92;94070.78;5070746;28;20058;-39
2022/01/26 01:56:53;;;;;;;23.45;13.07;;;;;;;-16.01;59.03;94077.06;5070816;28;20484;-39
2022/01/26 01:59:20;;;;;;;8.40;5.32;;;;;;;-15.85;58.48;94070.41;5070587;28;20512;-39
2022/01/26 02:01:45;;;;;;;14.18;5.50;;;;;;;-16.03;58.93;94074.03;5059928;28;20165;-40
2022/01/26 02:04:11;;;;;;;15.95;6.82;;;;;;;-16.14;59.28;94070.56;5090970;28;20514;-39
2022/01/26 02:06:36;;;;;;;15.40;5.55;;;;;;;-15.89;59.34;94066.19;5090824;28;20016;-40
2022/01/26 02:09:03;;;;;;;20.05;8.35;;;;;;;-15.82;60.03;94074.19;5090540;28;20501;-39
2022/01/26 02:11:28;;;;;;;23.33;9.95;;;;;;;-15.70;60.43;94065.97;5082289;28;20063;-39
2022/01/26 02:14:08;;;;;;;9.90;5.85;;;;;;;-15.39;59.24;94059.31;5070176;28;20498;-40
2022/01/26 02:49:18;;;;;;;30.63;13.68;;;;;;;-15.22;59.85;94063.94;5070573;28;20031;-39
2022/01/26 02:55:06;;;;;;;31.45;16.70;;;;;;;-14.34;60.51;94043.78;5090061;28;20024;-39
2022/01/26 02:58:07;;;;;;;38.42;20.20;;;;;;;-14.24;61.22;94034.28;5089999;28;20106;-39
2022/01/26 03:03:34;;;;;;;62.03;17.95;;;;;;;-14.45;61.15;94027.09;5060822;28;20039;-39
2022/01/26 03:06:05;;;;;;;19.08;10.68;;;;;;;-14.19;61.41;94039.97;5089919;28;20085;-39
2022/01/26 03:08:41;;;;;;;33.78;14.50;;;;;;;-14.19;61.58;94036.56;5075309;28;20032;-39
2022/01/26 03:11:14;;;;;;;29.92;15.98;;;;;;;-14.26;61.78;94029.34;5069717;28;20048;-38
2022/01/26 03:13:46;;;;;;;27.27;10.93;;;;;;;-14.49;63.20;94041.47;5069639;28;20029;-39
2022/01/26 03:16:18;;;;;;;29.65;15.68;;;;;;;-14.34;63.18;94043.78;5069843;28;20017;-39
2022/01/26 03:19:18;;;;;;;25.95;12.60;;;;;;;-14.26;62.58;94037.31;5069930;28;20071;-39
2022/01/26 03:21:38;;;;;;;17.08;11.73;;;;;;;-14.27;62.72;94041.09;5069188;28;20106;-39
2022/01/26 03:34:26;;;;;;;30.45;16.23;;;;;;;-13.91;64.82;94033.91;5089890;28;20035;-40
2022/01/26 03:36:56;;;;;;;22.92;10.65;;;;;;;-13.88;65.17;94029.75;5089937;28;20031;-39
2022/01/26 03:39:24;;;;;;;23.42;14.45;;;;;;;-13.94;65.84;94033.91;5092988;28;20028;-41
2022/01/26 03:42:15;;;;;;;25.77;13.93;;;;;;;-13.74;65.38;94024.41;5093710;28;20075;-40
2022/01/26 03:44:36;;;;;;;41.50;17.75;;;;;;;-13.71;64.98;94024.41;5092701;28;20486;-39
2022/01/26 03:47:02;;;;;;;19.88;10.68;;;;;;;-13.58;65.66;94032.75;5093318;28;20028;-39
2022/01/26 03:49:27;;;;;;;18.23;10.43;;;;;;;-13.53;65.50;94016.41;5093052;28;20111;-38
2022/01/26 03:51:53;;;;;;;24.48;10.90;;;;;;;-13.38;65.07;94018.66;5093446;28;20073;-38
2022/01/26 03:54:20;;;;;;;29.10;13.15;;;;;;;-13.30;65.77;94019.41;5093263;28;20517;-38
2022/01/26 03:56:46;;;;;;;22.50;12.20;;;;;;;-13.30;65.44;94014.84;5093253;28;20028;-39
2022/01/26 03:59:12;;;;;;;36.75;11.93;;;;;;;-13.48;66.02;94013.38;5093335;28;20103;-38
2022/01/26 04:01:38;;;;;;;29.27;9.13;;;;;;;-13.31;65.65;94000.03;5092713;28;20031;-37
2022/01/26 04:04:04;;;;;;;31.75;10.55;;;;;;;-13.07;65.80;94006.41;5084018;28;20044;-37
2022/01/26 04:06:31;;;;;;;27.00;12.43;;;;;;;-12.96;66.18;94012.41;5072588;28;20532;-37
2022/01/26 04:08:57;;;;;;;31.75;12.80;;;;;;;-12.87;66.51;94014.66;5072773;28;20021;-38
2022/01/26 04:11:34;;;;;;;38.00;17.27;;;;;;;-12.64;66.11;94018.31;5072357;28;20555;-39
2022/01/26 04:14:04;;;;;;;31.92;15.60;;;;;;;-12.67;65.39;94023.69;5072717;28;20023;-39
2022/01/26 04:16:29;;;;;;;23.45;12.82;;;;;;;-12.71;66.14;94023.69;5072305;28;20158;-38
2022/01/26 04:18:56;;;;;;;35.42;14.10;;;;;;;-12.62;65.33;94021.34;5072714;28;20107;-38
2022/01/26 04:24:16;;;;;;;57.85;21.73;;;;;;;-12.45;65.50;94003.81;5072578;28;20429;-39
2022/01/26 04:27:05;;;;;;;47.13;19.35;;;;;;;-12.35;65.30;94004.88;5078627;28;20030;-38
2022/01/26 04:29:33;;;;;;;39.92;18.58;;;;;;;-12.46;65.99;93997.72;5092440;28;20028;-39
2022/01/26 04:31:59;;;;;;;40.58;20.40;;;;;;;-12.51;65.77;93997.34;5092308;28;20032;-39
2022/01/26 04:34:26;;;;;;;49.67;22.77;;;;;;;-12.33;65.58;93997.25;5092447;28;20028;-39
2022/01/26 04:37:02;;;;;;;41.25;21.25;;;;;;;-12.45;66.61;93996.56;5092641;28;20562;-40
2022/01/26 04:39:33;;;;;;;43.50;17.52;;;;;;;-12.41;65.63;94004.53;5092540;28;20416;-41
2022/01/26 04:42:07;;;;;;;44.38;18.00;;;;;;;-12.41;66.83;94007.19;5092475;28;20048;-39
2022/01/26 04:44:45;;;;;;;41.97;21.35;;;;;;;-12.13;66.43;94014.22;5092224;28;20020;-40
2022/01/26 04:47:11;;;;;;;;;;;;;;;-12.03;65.61;94011.47;5092844;28;20027;-39
2022/01/26 04:49:36;;;;;;;31.80;15.50;;;;;;;-11.96;64.82;94014.09;5091727;28;19908;-40
2022/01/26 04:52:03;;;;;;;47.35;23.67;;;;;;;-12.09;65.09;94014.94;5092206;28;20027;-40
2022/01/26 04:54:29;;;;;;;32.40;14.85;;;;;;;-12.22;65.44;94011.25;5091828;28;20540;-39
2022/01/26 04:56:54;;;;;;;33.50;16.15;;;;;;;-12.13;66.45;94006.22;5092197;28;20115;-40
2022/01/26 04:59:20;;;;;;;38.75;18.13;;;;;;;-12.46;66.75;94013.69;5073450;28;20408;-39
2022/01/26 05:01:45;;;;;;;29.85;12.30;;;;;;;-12.35;67.50;93999.53;5071573;28;20067;-39
2022/01/26 05:04:11;;;;;;;32.85;15.82;;;;;;;-12.27;67.06;93993.78;5054044;28;20024;-40
2022/01/26 05:06:36;;;;;;;31.38;17.10;;;;;;;-12.15;67.32;93995.22;5071472;28;20409;-40
2022/01/26 05:09:03;;;;;;;29.20;12.52;;;;;;;-11.94;66.22;93997.72;5071476;28;20024;-40
2022/01/26 05:11:38;;;;;;;37.15;17.27;;;;;;;-11.91;66.62;93996.94;5071275;28;20051;-39
2022/01/26 05:14:04;;;;;;;36.05;14.40;;;;;;;-11.89;66.98;93999.97;5071341;28;20016;-39
2022/01/26 05:16:30;;;;;;;40.80;15.07;;;;;;;-11.91;66.77;93978.31;5071216;28;20035;-40
2022/01/26 05:18:57;;;;;;;38.78;14.95;;;;;;;-11.87;66.78;93995.00;5071573;28;20024;-40
2022/01/26 05:21:23;;;;;;;28.38;14.18;;;;;;;-11.92;67.12;93995.41;5071477;28;20025;-40
2022/01/26 05:23:49;;;;;;;26.27;11.95;;;;;;;-11.88;67.24;94001.47;5071474;28;20028;-40
2022/01/26 05:26:15;;;;;;;32.45;13.93;;;;;;;-11.87;67.27;94003.00;5052761;28;20009;-39
2022/01/26 05:28:41;;;;;;;35.63;16.35;;;;;;;-11.93;67.29;94001.91;5071195;28;20035;-39
2022/01/26 05:31:06;;;;;;;26.88;15.25;;;;;;;-11.83;67.76;93990.41;5071037;28;20489;-38
2022/01/26 05:33:32;;;;;;;37.92;16.80;;;;;;;-11.67;67.35;94002.03;5071291;28;20548;-39
2022/01/26 05:35:58;;;;;;;27.23;12.13;;;;;;;-11.66;68.35;93995.53;5069925;28;20060;-38
2022/01/26 05:38:23;;;;;;;49.25;18.73;;;;;;;-11.44;67.15;93988.09;5070818;28;20588;-39
2022/01/26 05:40:50;;;;;;;28.77;14.23;;;;;;;-11.43;67.23;93997.59;5071167;28;20031;-38
2022/01/26 05:43:16;;;;;;;36.20;16.80;;;;;;;-11.40;68.13;93991.47;5071048;28;20020;-39
2022/01/26 05:45:45;;;;;;;28.90;14.20;;;;;;;-11.39;67.78;93990.31;5070780;28;20417;-38
2022/01/26 05:48:12;;;;;;;31.45;16.48;;;;;;;-11.27;67.65;93986.41;5070596;28;20032;-38
2022/01/26 05:50:38;;;;;;;39.63;18.88;;;;;;;-11.29;67.08;93984.13;5070615;28;20505;-38
2022/01/26 05:53:05;;;;;;;49.50;26.25;;;;;;;-11.10;66.66;93988.09;5070566;28;20021;-38
2022/01/26 05:55:30;;;;;;;66.13;31.27;;;;;;;-10.94;66.00;93983.75;5070554;28;20077;-39
2022/01/26 05:57:56;;;;;;;55.33;26.80;;;;;;;-10.94;66.73;93970.41;5070580;28;20036;-38
2022/01/26 06:00:22;;;;;;;57.78;25.23;;;;;;;-10.92;66.50;93978.75;5069866;28;20456;-38
2022/01/26 06:02:47;;;;;;;35.20;20.17;;;;;;;-10.87;66.43;93983.63;5070292;28;20048;-38
2022/01/26 06:05:13;;;;;;;50.22;21.58;;;;;;;-11.17;66.59;93961.53;5069191;28;20040;-40
2022/01/26 06:07:38;;;;;;;58.08;29.20;;;;;;;-11.28;67.36;93982.97;5070619;28;20074;-37
2022/01/26 06:10:04;;;;;;;62.00;29.00;;;;;;;-11.09;68.24;93995.72;5070189;28;20020;-39
2022/01/26 06:12:33;;;;;;;72.55;30.23;;;;;;;-10.93;67.70;93989.81;5083897;28;20424;-39
2022/01/26 06:15:01;;;;;;;72.28;37.35;;;;;;;-10.83;67.75;93988.19;5090645;28;20077;-40
2022/01/26 06:17:26;;;;;;;85.45;38.80;;;;;;;-11.13;67.96;93994.97;5090399;28;20053;-40
2022/01/26 06:19:52;;;;;;;78.43;34.85;;;;;;;-11.05;68.29;93985.78;5086664;28;20023;-39
2022/01/26 06:22:17;;;;;;;89.68;39.60;;;;;;;-10.88;69.08;93994.72;5070448;28;20024;-40
2022/01/26 06:24:43;;;;;;;76.07;30.15;;;;;;;-10.77;68.77;93989.25;5069205;28;20032;-39
2022/01/26 06:27:08;;;;;;;73.40;31.65;;;;;;;-10.77;68.08;93976.66;5078814;28;20020;-40
2022/01/26 06:29:34;;;;;;;46.95;26.23;;;;;;;-10.65;67.98;93996.72;5089913;28;20028;-38
2022/01/26 06:31:59;;;;;;;54.58;26.70;;;;;;;-10.54;68.14;93991.97;5088985;28;20496;-38
2022/01/26 06:34:25;;;;;;;78.40;32.42;;;;;;;-10.42;67.52;93988.78;5081518;28;20025;-38
2022/01/26 06:36:51;;;;;;;75.18;31.08;;;;;;;-10.18;66.19;93982.34;5068766;28;20052;-41
2022/01/26 06:39:16;;;;;;;119.53;47.25;;;;;;;-10.14;66.41;93988.38;5067180;28;20035;-43
2022/01/26 06:41:52;;;;;;;160.60;61.33;;;;;;;-10.21;66.22;93981.22;5065811;28;20024;-42
2022/01/26 06:44:31;;;;;;;148.73;56.47;;;;;;;-10.16;66.58;93988.78;5068878;28;20028;-44
2022/01/26 06:51:54;;;;;;;67.90;27.48;;;;;;;-10.17;67.87;93983.84;5080787;28;20064;-43
2022/01/26 06:54:20;;;;;;;57.83;25.38;;;;;;;-10.04;67.99;93987.41;5086566;28;20028;-42
2022/01/26 06:56:45;;;;;;;64.97;28.58;;;;;;;-10.01;68.31;93969.84;5083077;28;20028;-45
2022/01/26 06:59:14;;;;;;;105.13;43.65;;;;;;;-9.83;68.07;93976.41;5075187;28;20024;-45
2022/01/26 07:01:40;;;;;;;106.25;45.15;;;;;;;-9.61;67.83;93985.56;5066439;28;20028;-44
2022/01/26 07:04:06;;;;;;;102.13;46.20;;;;;;;-9.52;67.73;93993.06;5066470;28;20028;-45
2022/01/26 07:06:32;;;;;;;99.93;43.15;;;;;;;-9.43;66.58;93994.06;5066424;28;20074;-39
2022/01/26 07:08:57;;;;;;;100.32;43.88;;;;;;;-9.30;65.78;93994.22;5066292;28;20131;-41
2022/01/26 07:11:23;;;;;;;96.93;40.28;;;;;;;-9.47;64.41;93945.25;5066344;28;20056;-39
2022/01/26 07:13:52;;;;;;;95.82;41.85;;;;;;;-9.07;65.28;93991.50;5070436;28;20040;-41
2022/01/26 07:21:45;;;;;;;136.93;62.47;;;;;;;-9.11;66.23;93990.81;5070688;28;20039;-43
2022/01/26 07:24:10;;;;;;;80.47;36.53;;;;;;;-9.22;65.71;93982.22;5070446;28;20033;-45
2022/01/26 07:26:37;;;;;;;70.78;33.53;;;;;;;-9.10;65.92;93989.66;5079264;28;20468;-41
2022/01/26 07:29:11;;;;;;;104.82;45.85;;;;;;;-8.93;65.69;93988.56;5090407;28;20024;-43
2022/01/26 07:31:42;;;;;;;91.40;39.00;;;;;;;-8.83;65.31;93986.81;5090802;28;20096;-43
2022/01/26 07:34:09;;;;;;;58.83;23.75;;;;;;;-8.84;65.33;93974.63;5090234;28;20035;-42
2022/01/26 07:36:34;;;;;;;25.00;13.00;;;;;;;-8.99;65.59;93981.41;5090033;28;20662;-40
2022/01/26 07:39:06;;;;;;;28.60;13.98;;;;;;;-8.83;65.12;93974.22;5082548;28;20103;-40
2022/01/26 07:41:32;;;;;;;33.20;13.95;;;;;;;-8.93;65.57;93980.53;5067974;28;20040;-40
2022/01/26 07:43:58;;;;;;;30.33;14.20;;;;;;;-8.88;66.12;93980.03;5069932;28;20028;-40
2022/01/26 07:46:24;;;;;;;29.98;14.57;;;;;;;-8.66;67.00;93977.69;5069865;28;20027;-40
2022/01/26 07:48:50;;;;;;;46.35;22.98;;;;;;;-8.59;66.10;93966.84;5069693;28;20032;-41
2022/01/26 07:51:16;;;;;;;46.28;22.52;;;;;;;-8.58;65.99;93944.28;5069930;28;20021;-39
2022/01/26 07:53:44;;;;;;;53.17;22.38;;;;;;;-8.24;65.93;93982.13;5007020;28;20584;-41
2022/01/26 07:56:09;;;;;;;41.65;20.77;;;;;;;-8.07;65.63;93975.63;5029461;28;20034;-40
2022/01/26 07:58:35;;;;;;;75.85;34.85;;;;;;;-7.92;65.14;93974.13;5029980;28;20022;-40
2022/01/26 08:01:00;;;;;;;41.08;23.08;;;;;;;-7.79;65.13;93968.84;5029863;28;20029;-41
2022/01/26 08:03:32;;;;;;;31.52;17.25;;;;;;;-7.59;65.18;93969.50;5029871;28;20722;-41
2022/01/26 08:05:58;;;;;;;36.20;17.95;;;;;;;-7.41;64.05;93964.47;5030370;28;20517;-42
2022/01/26 08:08:24;;;;;;;37.38;19.63;;;;;;;-7.30;63.88;93964.19;5030166;28;20116;-41
2022/01/26 08:10:50;;;;;;;37.72;18.98;;;;;;;-7.23;63.32;93964.75;5029463;28;20064;-40
2022/01/26 08:13:16;;;;;;;37.95;20.92;;;;;;;-7.27;63.34;93968.69;5029340;28;20146;-40
2022/01/26 08:15:41;;;;;;;43.90;23.42;;;;;;;-7.40;64.01;93962.53;5028842;28;20069;-41
2022/01/26 08:18:07;;;;;;;37.70;18.88;;;;;;;-7.33;63.56;93967.72;5029509;28;20022;-42
2022/01/26 08:20:33;;;;;;;38.50;19.50;;;;;;;-7.04;64.03;93965.81;5029496;28;20076;-41
2022/01/26 08:22:59;;;;;;;42.45;20.13;;;;;;;-6.78;63.56;93962.03;5028673;28;20026;-42
2022/01/26 08:25:25;;;;;;;48.70;21.35;;;;;;;-6.48;62.20;93968.84;5028975;28;20033;-42
2022/01/26 08:27:57;;;;;;;47.35;21.67;;;;;;;-6.29;61.94;93967.91;5025056;28;20033;-42
2022/01/26 08:30:23;;;;;;;46.03;23.83;;;;;;;-6.14;62.36;93954.81;5029896;28;20029;-42
2022/01/26 08:32:49;;;;;;;34.25;19.33;;;;;;;-6.17;61.15;93938.34;5029558;28;20536;-42
2022/01/26 08:35:14;;;;;;;24.92;13.82;;;;;;;-5.83;60.47;93956.50;5029043;28;20033;-42
2022/01/26 08:37:40;;;;;;;26.77;13.55;;;;;;;-5.82;61.09;93951.84;5029120;28;20026;-41
2022/01/26 08:40:06;;;;;;;31.65;16.17;;;;;;;-5.58;59.96;93961.06;5023945;28;20278;-41
2022/01/26 08:42:32;;;;;;;32.10;15.38;;;;;;;-5.67;60.53;93959.03;5011145;28;20052;-42
2022/01/26 08:44:57;;;;;;;39.15;21.17;;;;;;;-5.15;61.90;93960.47;5023041;28;20498;-43
2022/01/26 08:47:23;;;;;;;50.08;22.05;;;;;;;-4.58;61.13;93945.75;5028882;28;20033;-45
2022/01/26 08:49:49;;;;;;;42.42;19.80;;;;;;;-3.93;59.84;93965.25;5029319;28;20037;-44
2022/01/26 08:52:14;;;;;;;38.45;20.40;;;;;;;-3.58;58.06;93947.72;5029049;28;20526;-46
2022/01/26 08:54:40;;;;;;;29.25;17.70;;;;;;;-3.20;56.89;93958.88;5029167;28;20404;-43
2022/01/26 08:57:06;;;;;;;36.30;20.00;;;;;;;-2.70;55.57;93962.94;5028226;28;20048;-46
2022/01/26 08:59:31;;;;;;;25.80;15.38;;;;;;;-2.87;52.84;93952.88;5028554;28;20030;-44
2022/01/26 09:01:57;;;;;;;39.80;20.30;;;;;;;-2.81;54.44;93951.84;5027349;28;20114;-46
2022/01/26 09:04:22;;;;;;;28.70;16.45;;;;;;;-2.16;53.92;93962.13;5028038;28;20017;-43
2022/01/26 09:07:06;;;;;;;24.80;13.38;;;;;;;-1.94;52.80;93965.38;5028362;28;20025;-46
2022/01/26 09:09:41;;;;;;;27.42;15.30;;;;;;;-1.41;52.51;93952.09;5028406;28;20037;-42
2022/01/26 09:12:18;;;;;;;23.67;13.55;;;;;;;-1.64;50.36;93950.06;5044693;28;20513;-44
2022/01/26 09:14:47;;;;;;;26.63;14.17;;;;;;;-1.01;51.59;93954.38;5047971;28;20059;-40
2022/01/26 09:17:13;;;;;;;25.60;13.85;;;;;;;-0.54;50.23;93943.47;5048120;28;20103;-42
2022/01/26 09:19:42;;;;;;;31.08;18.08;;;;;;;-0.58;49.59;93953.75;5047819;28;20045;-42
2022/01/26 09:22:15;;;;;;;29.48;17.55;;;;;;;-0.09;48.54;93940.31;5047524;28;20037;-43
2022/01/26 09:24:43;;;;;;;28.17;15.65;;;;;;;0.23;48.76;93937.88;5047951;28;20413;-41
2022/01/26 09:27:12;;;;;;;29.88;15.82;;;;;;;0.52;47.94;93935.84;5047297;28;20709;-42
2022/01/26 09:29:37;;;;;;;;;;;;;;;0.37;46.60;93907.25;5039507;28;20037;-42
2022/01/26 09:32:04;;;;;;;24.80;13.13;;;;;;;0.45;46.09;93933.53;5027425;28;20024;-40
2022/01/26 09:34:30;;;;;;;27.48;14.82;;;;;;;0.22;48.08;93930.97;5027345;28;20036;-42
2022/01/26 09:36:57;;;;;;;24.85;14.95;;;;;;;0.11;48.12;93915.22;5027392;28;20025;-45
2022/01/26 09:39:23;;;;;;;26.10;13.73;;;;;;;0.08;46.49;93921.63;5036261;28;20025;-42
2022/01/26 09:41:50;;;;;;;28.90;13.65;;;;;;;-0.11;48.79;93925.75;5036006;28;20107;-45
2022/01/26 09:44:16;;;;;;;25.50;14.30;;;;;;;-0.08;49.04;93924.78;5035109;28;20111;-44
2022/01/26 09:46:43;;;;;;;24.80;13.98;;;;;;;-0.31;47.73;93928.34;5041558;28;20024;-43
2022/01/26 09:49:09;;;;;;;25.75;14.07;;;;;;;-0.19;48.99;93925.38;5037523;28;20135;-44
2022/01/26 09:51:43;;;;;;;29.67;16.13;;;;;;;-0.20;49.72;93926.59;5027350;28;20116;-42
2022/01/26 09:54:14;;;;;;;28.73;15.57;;;;;;;-0.17;49.58;93919.47;5037369;28;20082;-41
2022/01/26 09:56:40;;;;;;;22.52;14.25;;;;;;;-0.09;48.45;93918.63;5027532;28;20033;-43
2022/01/26 09:59:07;;;;;;;25.15;14.85;;;;;;;-0.45;49.69;93912.81;5040513;28;20028;-40
2022/01/26 10:01:40;;;;;;;25.65;15.98;;;;;;;-0.30;49.26;93900.75;5046839;28;20087;-42
2022/01/26 10:04:06;;;;;;;27.25;17.30;;;;;;;-0.17;48.82;93911.31;5046990;28;20447;-42
2022/01/26 10:06:32;;;;;;;29.48;15.65;;;;;;;-0.18;48.48;93910.59;5043889;28;20021;-40
2022/01/26 10:19:57;;;;;;;26.83;14.25;;;;;;;-1.03;52.22;93892.53;5026967;28;20044;-44
2022/01/26 10:22:31;;;;;;;25.13;14.90;;;;;;;-0.89;52.31;93891.06;5035482;28;20021;-45
2022/01/26 10:25:09;;;;;;;34.85;17.65;;;;;;;-0.90;52.71;93863.22;5026702;28;20580;-42
2022/01/26 10:27:43;;;;;;;23.05;13.20;;;;;;;-0.79;52.89;93884.34;5026060;28;20037;-43
2022/01/26 10:30:12;;;;;;;25.95;14.13;;;;;;;-0.72;52.70;93869.69;5026415;28;20602;-41
2022/01/26 10:32:38;;;;;;;25.15;13.60;;;;;;;-0.59;53.93;93881.00;5026357;28;20033;-44
2022/01/26 10:35:05;;;;;;;20.95;12.38;;;;;;;-0.73;53.78;93870.88;5027241;28;20022;-43
2022/01/26 10:37:32;;;;;;;26.48;13.68;;;;;;;-0.92;55.04;93871.06;5027107;28;20039;-43
2022/01/26 10:40:17;;;;;;;24.60;12.20;;;;;;;-0.89;54.35;93870.13;5026490;28;20715;-45
2022/01/26 10:42:55;;;;;;;23.55;13.25;;;;;;;-0.78;55.04;93872.31;5026737;28;20045;-41
2022/01/26 10:45:43;;;;;;;26.48;14.52;;;;;;;-0.79;54.97;93866.13;5028876;28;20018;-44
2022/01/26 10:48:18;;;;;;;22.27;11.20;;;;;;;-0.68;54.46;93860.16;5027663;28;20045;-42
2022/01/26 10:50:58;;;;;;;20.77;11.75;;;;;;;-0.81;54.66;93865.84;5028464;28;20037;-42
2022/01/26 10:53:33;;;;;;;25.40;13.65;;;;;;;-0.81;55.52;93873.22;5028597;28;20032;-45
2022/01/26 10:55:58;;;;;;;23.98;16.40;;;;;;;-0.52;55.88;93867.09;5028819;28;20037;-44
2022/01/26 10:58:24;;;;;;;26.73;14.45;;;;;;;-0.64;54.91;93868.09;5028300;28;20430;-42
2022/01/26 11:00:52;;;;;;;25.25;14.23;;;;;;;-0.49;55.96;93861.47;5010719;28;20100;-43
2022/01/26 11:03:17;;;;;;;29.20;15.95;;;;;;;-0.29;55.48;93864.28;5011128;28;20090;-43
2022/01/26 11:05:43;;;;;;;34.42;16.85;;;;;;;-0.21;55.52;93859.97;5028346;28;20022;-43
2022/01/26 11:08:09;;;;;;;28.33;17.42;;;;;;;-0.04;55.33;93850.09;5028623;28;20094;-42
2022/01/26 11:10:37;;;;;;;29.92;17.08;;;;;;;0.02;55.55;93858.34;5033569;28;20049;-42
2022/01/26 11:13:05;;;;;;;34.15;17.70;;;;;;;0.20;55.59;93854.63;5046186;28;20083;-41
2022/01/26 11:15:31;;;;;;;37.35;19.92;;;;;;;0.09;56.14;93849.06;5046294;28;20026;-40
2022/01/26 11:18:17;;;;;;;25.33;15.65;;;;;;;0.33;55.62;93844.97;5045672;28;20036;-40
2022/01/26 11:20:49;;;;;;;20.70;12.75;;;;;;;0.77;54.33;93848.28;5046585;28;20082;-40
2022/01/26 11:23:21;;;;;;;27.23;15.02;;;;;;;0.66;54.09;93839.22;5045311;28;20452;-40
2022/01/26 11:25:48;;;;;;;28.40;15.20;;;;;;;0.78;53.37;93838.13;5024467;28;20041;-39
2022/01/26 11:28:24;;;;;;;27.90;15.00;;;;;;;0.81;54.36;93837.19;5045522;28;20037;-39
2022/01/26 11:30:51;;;;;;;24.95;14.77;;;;;;;0.58;55.46;93841.63;5046008;28;20440;-40
2022/01/26 11:33:21;;;;;;;29.38;14.13;;;;;;;0.69;54.98;93836.28;5045380;28;20029;-39
2022/01/26 11:35:49;;;;;;;28.77;16.05;;;;;;;0.92;55.21;93834.59;5045857;28;20028;-40
2022/01/26 11:46:34;;;;;;;30.67;14.60;;;;;;;1.23;55.26;93833.94;5044304;28;20040;-40
2022/01/26 11:49:00;;;;;;;29.42;14.07;;;;;;;1.44;54.34;93824.50;5042992;28;20047;-40
2022/01/26 11:51:38;;;;;;;24.13;14.23;;;;;;;1.54;54.80;93823.09;5042704;28;20037;-39
2022/01/26 11:54:18;;;;;;;22.38;13.07;;;;;;;1.66;54.03;93815.78;5026134;28;20059;-41
2022/01/26 11:57:16;;;;;;;20.00;11.32;;;;;;;1.76;54.10;93819.81;5025643;28;20026;-40
2022/01/26 11:59:48;;;;;;;21.27;12.85;;;;;;;1.79;52.96;93825.06;5020720;28;20119;-41
2022/01/26 12:02:23;;;;;;;16.67;10.13;;;;;;;1.88;53.48;93824.13;5029411;28;20037;-41
2022/01/26 12:05:00;;;;;;;18.15;9.77;;;;;;;2.04;53.86;93826.97;5041575;28;20453;-42
2022/01/26 12:07:27;;;;;;;20.38;11.43;;;;;;;2.02;52.77;93801.47;5047705;28;20044;-41
2022/01/26 12:09:53;;;;;;;23.63;12.35;;;;;;;2.13;53.42;93824.06;5047156;28;20029;-41
2022/01/26 12:12:20;;;;;;;18.33;12.18;;;;;;;2.21;53.32;93821.63;5036964;28;20054;-41
2022/01/26 12:15:06;;;;;;;22.33;12.00;;;;;;;2.21;53.26;93829.81;5029298;28;20033;-42
2022/01/26 12:17:36;;;;;;;24.05;13.55;;;;;;;2.40;53.00;93832.91;5029171;28;20045;-41
2022/01/26 12:42:35;;;;;;;16.08;11.35;;;;;;;2.25;54.12;93830.34;5048766;28;20532;-41
2022/01/26 12:45:02;;;;;;;26.20;13.85;;;;;;;1.92;55.17;93828.13;5048608;28;20792;-41
2022/01/26 12:47:28;;;;;;;24.48;13.45;;;;;;;1.82;55.87;93832.25;5048399;28;20130;-41
2022/01/26 12:49:55;;;;;;;21.35;12.43;;;;;;;1.58;56.86;93842.69;5046830;28;20793;-41
2022/01/26 12:52:22;;;;;;;21.10;12.68;;;;;;;1.45;57.51;93829.47;5047826;28;20035;-41
2022/01/26 12:54:47;;;;;;;26.35;12.98;;;;;;;1.20;57.82;93818.56;5047907;28;20144;-40
2022/01/26 12:57:13;;;;;;;23.90;13.07;;;;;;;1.21;58.26;93830.97;5047974;28;20132;-40
2022/01/26 12:59:39;;;;;;;22.50;12.32;;;;;;;1.05;58.68;93835.00;5047907;28;20033;-41
2022/01/26 13:02:05;;;;;;;19.77;11.27;;;;;;;0.89;58.69;93830.09;5047924;28;20041;-41
2022/01/26 13:04:30;;;;;;;19.05;12.60;;;;;;;0.77;59.36;93834.69;5047998;28;20060;-40
2022/01/26 13:06:56;;;;;;;19.30;12.48;;;;;;;0.74;59.88;93840.31;5048118;28;20025;-44
2022/01/26 13:09:27;;;;;;;24.23;14.57;;;;;;;0.60;60.44;93841.13;5046877;28;20036;-41
2022/01/26 13:11:58;;;;;;;26.88;14.77;;;;;;;0.28;61.68;93817.75;5047734;28;20041;-41
2022/01/26 13:14:37;;;;;;;23.13;12.55;;;;;;;0.41;61.72;93839.91;5047695;28;20036;-42
2022/01/26 13:27:38;;;;;;;23.20;13.50;;;;;;;0.23;63.56;93837.41;5034754;28;20033;-41
2022/01/26 13:30:26;;;;;;;25.05;15.50;;;;;;;0.07;63.62;93832.47;5027806;28;20116;-41
2022/01/26 13:33:16;;;;;;;24.40;14.57;;;;;;;0.21;63.86;93843.31;5027987;28;20537;-41
2022/01/26 13:49:06;;;;;;;23.65;14.23;;;;;;;-0.36;66.31;93844.91;5027525;28;20064;-41
2022/01/26 13:59:26;;;;;;;23.95;15.65;;;;;;;-0.66;68.13;93843.41;5026967;28;20033;-42
2022/01/26 14:02:07;;;;;;;22.90;14.38;;;;;;;-0.63;67.74;93847.91;5041947;28;20425;-41
2022/01/26 14:04:36;;;;;;;23.88;15.68;;;;;;;-0.85;68.84;93853.69;5046851;28;20051;-43
2022/01/26 14:07:01;;;;;;;30.87;16.23;;;;;;;-0.85;69.36;93848.28;5047084;28;20029;-40
2022/01/26 14:09:27;;;;;;;27.10;14.95;;;;;;;-0.98;70.14;93853.19;5045758;28;20694;-41
2022/01/26 14:11:53;;;;;;;24.67;14.95;;;;;;;-1.02;70.01;93850.66;5039935;28;20091;-45